sensor_id;sensor_type;location;lat;lon;timestamp;temperature;humidity
22321;DHT22;11328;53.928;18.522;2023-06-26T00:01:46;19.90;99.90
22321;DHT22;11328;53.928;18.522;2023-06-26T00:04:14;19.90;99.90
22321;DHT22;11328;53.928;18.522;2023-06-26T00:06:42;19.90;99.90
22321;DHT22;11328;53.928;18.522;2023-06-26T00:09:09;19.80;99.90
22321;DHT22;11328;53.928;18.522;2023-06-26T00:11:36;19.80;99.90
22321;DHT22;11328;53.928;18.522;2023-06-26T00:14:04;19.90;99.90
22321;DHT22;11328;53.928;18.522;2023-06-26T00:16:32;19.90;99.90
22321;DHT22;11328;53.928;18.522;2023-06-26T00:18:59;19.90;99.90
22321;DHT22;11328;53.928;18.522;2023-06-26T00:21:27;19.80;99.90
22321;DHT22;11328;53.928;18.522;2023-06-26T00:23:54;19.80;99.90
22321;DHT22;11328;53.928;18.522;2023-06-26T00:26:22;19.80;99.90
22321;DHT22;11328;53.928;18.522;2023-06-26T00:28:51;19.70;99.90
22321;DHT22;11328;53.928;18.522;2023-06-26T00:31:19;19.70;99.90
22321;DHT22;11328;53.928;18.522;2023-06-26T00:33:47;19.70;99.90
22321;DHT22;11328;53.928;18.522;2023-06-26T00:36:14;19.60;99.90
22321;DHT22;11328;53.928;18.522;2023-06-26T00:38:41;19.60;99.90
22321;DHT22;11328;53.928;18.522;2023-06-26T00:41:08;19.60;99.90
22321;DHT22;11328;53.928;18.522;2023-06-26T00:43:40;19.40;99.90
22321;DHT22;11328;53.928;18.522;2023-06-26T00:46:13;19.30;99.90
22321;DHT22;11328;53.928;18.522;2023-06-26T00:48:42;19.20;99.90
22321;DHT22;11328;53.928;18.522;2023-06-26T00:51:12;19.10;99.90
22321;DHT22;11328;53.928;18.522;2023-06-26T00:53:40;19.00;99.90
22321;DHT22;11328;53.928;18.522;2023-06-26T00:56:09;18.80;99.90
22321;DHT22;11328;53.928;18.522;2023-06-26T00:58:37;18.70;99.90
22321;DHT22;11328;53.928;18.522;2023-06-26T01:01:05;18.60;99.90
22321;DHT22;11328;53.928;18.522;2023-06-26T01:03:35;18.30;99.90
22321;DHT22;11328;53.928;18.522;2023-06-26T01:06:07;18.10;99.90
22321;DHT22;11328;53.928;18.522;2023-06-26T01:08:42;18.10;99.90
22321;DHT22;11328;53.928;18.522;2023-06-26T01:11:10;17.90;99.90
22321;DHT22;11328;53.928;18.522;2023-06-26T01:13:39;17.80;99.90
22321;DHT22;11328;53.928;18.522;2023-06-26T01:16:09;17.70;99.90
22321;DHT22;11328;53.928;18.522;2023-06-26T01:18:38;17.50;99.90
22321;DHT22;11328;53.928;18.522;2023-06-26T01:21:13;17.30;99.90
22321;DHT22;11328;53.928;18.522;2023-06-26T01:23:57;17.20;99.90
22321;DHT22;11328;53.928;18.522;2023-06-26T01:26:32;17.20;99.90
22321;DHT22;11328;53.928;18.522;2023-06-26T01:29:03;17.00;99.90
22321;DHT22;11328;53.928;18.522;2023-06-26T01:31:33;17.00;99.90
22321;DHT22;11328;53.928;18.522;2023-06-26T01:34:02;16.90;99.90
22321;DHT22;11328;53.928;18.522;2023-06-26T01:36:30;16.80;99.90
22321;DHT22;11328;53.928;18.522;2023-06-26T01:38:57;16.70;99.90
22321;DHT22;11328;53.928;18.522;2023-06-26T01:41:25;16.60;99.90
22321;DHT22;11328;53.928;18.522;2023-06-26T01:46:59;16.50;99.90
22321;DHT22;11328;53.928;18.522;2023-06-26T01:52:57;16.40;99.90
22321;DHT22;11328;53.928;18.522;2023-06-26T01:55:41;16.30;99.90
22321;DHT22;11328;53.928;18.522;2023-06-26T01:58:17;16.20;99.90
22321;DHT22;11328;53.928;18.522;2023-06-26T02:00:49;16.10;99.90
22321;DHT22;11328;53.928;18.522;2023-06-26T02:03:17;16.10;99.90
22321;DHT22;11328;53.928;18.522;2023-06-26T02:05:45;16.10;99.90
22321;DHT22;11328;53.928;18.522;2023-06-26T02:08:14;16.20;99.90
22321;DHT22;11328;53.928;18.522;2023-06-26T02:10:42;16.20;99.90
22321;DHT22;11328;53.928;18.522;2023-06-26T02:13:09;16.20;99.90
22321;DHT22;11328;53.928;18.522;2023-06-26T02:15:37;16.20;99.90
22321;DHT22;11328;53.928;18.522;2023-06-26T02:18:04;16.20;99.90
22321;DHT22;11328;53.928;18.522;2023-06-26T02:20:31;16.20;99.90
22321;DHT22;11328;53.928;18.522;2023-06-26T02:23:00;16.10;99.90
22321;DHT22;11328;53.928;18.522;2023-06-26T02:25:27;16.00;99.90
22321;DHT22;11328;53.928;18.522;2023-06-26T02:27:54;15.90;99.90
22321;DHT22;11328;53.928;18.522;2023-06-26T02:30:22;15.90;99.90
22321;DHT22;11328;53.928;18.522;2023-06-26T02:32:49;15.80;99.90
22321;DHT22;11328;53.928;18.522;2023-06-26T02:35:17;15.80;99.90
22321;DHT22;11328;53.928;18.522;2023-06-26T02:37:44;15.80;99.90
22321;DHT22;11328;53.928;18.522;2023-06-26T02:40:11;15.80;99.90
22321;DHT22;11328;53.928;18.522;2023-06-26T02:42:39;15.80;99.90
22321;DHT22;11328;53.928;18.522;2023-06-26T02:45:06;15.70;99.90
22321;DHT22;11328;53.928;18.522;2023-06-26T02:47:34;15.70;99.90
22321;DHT22;11328;53.928;18.522;2023-06-26T02:50:01;15.80;99.90
22321;DHT22;11328;53.928;18.522;2023-06-26T02:52:30;15.80;99.90
22321;DHT22;11328;53.928;18.522;2023-06-26T02:54:57;15.70;99.90
22321;DHT22;11328;53.928;18.522;2023-06-26T02:57:24;15.70;99.90
22321;DHT22;11328;53.928;18.522;2023-06-26T02:59:53;15.70;99.90
22321;DHT22;11328;53.928;18.522;2023-06-26T03:02:20;15.80;99.90
22321;DHT22;11328;53.928;18.522;2023-06-26T03:04:48;15.80;99.90
22321;DHT22;11328;53.928;18.522;2023-06-26T03:07:17;15.80;99.90
22321;DHT22;11328;53.928;18.522;2023-06-26T03:09:46;15.80;99.90
22321;DHT22;11328;53.928;18.522;2023-06-26T03:12:13;15.80;99.90
22321;DHT22;11328;53.928;18.522;2023-06-26T03:14:41;15.80;99.90
22321;DHT22;11328;53.928;18.522;2023-06-26T03:17:13;15.80;99.90
22321;DHT22;11328;53.928;18.522;2023-06-26T03:19:40;15.80;99.90
22321;DHT22;11328;53.928;18.522;2023-06-26T03:22:09;15.70;99.90
22321;DHT22;11328;53.928;18.522;2023-06-26T03:24:36;15.70;99.90
22321;DHT22;11328;53.928;18.522;2023-06-26T03:27:04;15.80;99.90
22321;DHT22;11328;53.928;18.522;2023-06-26T03:29:32;15.70;99.90
22321;DHT22;11328;53.928;18.522;2023-06-26T03:31:59;15.70;99.90
22321;DHT22;11328;53.928;18.522;2023-06-26T03:34:26;15.80;99.90
22321;DHT22;11328;53.928;18.522;2023-06-26T03:36:54;15.80;99.90
22321;DHT22;11328;53.928;18.522;2023-06-26T03:39:21;15.80;99.90
22321;DHT22;11328;53.928;18.522;2023-06-26T03:41:50;15.80;99.90
22321;DHT22;11328;53.928;18.522;2023-06-26T03:44:20;15.90;99.90
22321;DHT22;11328;53.928;18.522;2023-06-26T03:46:49;16.00;99.90
22321;DHT22;11328;53.928;18.522;2023-06-26T03:49:16;16.00;99.90
22321;DHT22;11328;53.928;18.522;2023-06-26T03:51:44;16.00;99.90
22321;DHT22;11328;53.928;18.522;2023-06-26T03:54:13;16.10;99.90
22321;DHT22;11328;53.928;18.522;2023-06-26T03:56:40;16.10;99.90
22321;DHT22;11328;53.928;18.522;2023-06-26T03:59:08;16.30;99.90
22321;DHT22;11328;53.928;18.522;2023-06-26T04:01:36;16.30;99.90
22321;DHT22;11328;53.928;18.522;2023-06-26T04:04:05;16.40;99.90
22321;DHT22;11328;53.928;18.522;2023-06-26T04:06:33;16.50;99.90
22321;DHT22;11328;53.928;18.522;2023-06-26T04:09:00;16.60;99.90
22321;DHT22;11328;53.928;18.522;2023-06-26T04:11:28;16.60;99.90
22321;DHT22;11328;53.928;18.522;2023-06-26T04:13:56;16.60;99.90
22321;DHT22;11328;53.928;18.522;2023-06-26T04:16:23;16.80;99.90
22321;DHT22;11328;53.928;18.522;2023-06-26T04:18:52;16.90;99.90
22321;DHT22;11328;53.928;18.522;2023-06-26T04:21:23;17.00;99.90
22321;DHT22;11328;53.928;18.522;2023-06-26T04:23:53;17.10;99.90
22321;DHT22;11328;53.928;18.522;2023-06-26T04:26:20;17.30;99.90
22321;DHT22;11328;53.928;18.522;2023-06-26T04:28:48;17.40;99.90
22321;DHT22;11328;53.928;18.522;2023-06-26T04:31:15;17.70;99.90
22321;DHT22;11328;53.928;18.522;2023-06-26T04:33:42;17.80;99.90
22321;DHT22;11328;53.928;18.522;2023-06-26T04:36:10;18.00;99.90
22321;DHT22;11328;53.928;18.522;2023-06-26T04:38:38;18.20;99.90
22321;DHT22;11328;53.928;18.522;2023-06-26T04:41:05;18.30;99.90
22321;DHT22;11328;53.928;18.522;2023-06-26T04:43:32;18.40;99.90
22321;DHT22;11328;53.928;18.522;2023-06-26T04:45:59;18.50;99.90
22321;DHT22;11328;53.928;18.522;2023-06-26T04:48:27;18.50;99.90
22321;DHT22;11328;53.928;18.522;2023-06-26T04:50:55;18.60;99.90
22321;DHT22;11328;53.928;18.522;2023-06-26T04:53:23;18.70;99.90
22321;DHT22;11328;53.928;18.522;2023-06-26T04:55:51;18.80;99.90
22321;DHT22;11328;53.928;18.522;2023-06-26T04:58:19;19.00;99.90
22321;DHT22;11328;53.928;18.522;2023-06-26T05:00:47;19.10;99.90
22321;DHT22;11328;53.928;18.522;2023-06-26T05:03:17;19.30;99.90
22321;DHT22;11328;53.928;18.522;2023-06-26T05:05:45;19.40;99.90
22321;DHT22;11328;53.928;18.522;2023-06-26T05:10:45;19.90;99.90
22321;DHT22;11328;53.928;18.522;2023-06-26T05:13:13;20.10;99.90
22321;DHT22;11328;53.928;18.522;2023-06-26T05:15:49;20.30;99.90
22321;DHT22;11328;53.928;18.522;2023-06-26T05:18:16;20.50;99.90
22321;DHT22;11328;53.928;18.522;2023-06-26T05:20:44;20.70;99.90
22321;DHT22;11328;53.928;18.522;2023-06-26T05:23:12;20.90;99.90
22321;DHT22;11328;53.928;18.522;2023-06-26T05:25:40;21.10;99.90
22321;DHT22;11328;53.928;18.522;2023-06-26T05:28:08;21.30;99.90
22321;DHT22;11328;53.928;18.522;2023-06-26T05:30:39;21.50;99.90
22321;DHT22;11328;53.928;18.522;2023-06-26T05:33:11;21.70;99.90
22321;DHT22;11328;53.928;18.522;2023-06-26T05:35:39;21.90;99.90
22321;DHT22;11328;53.928;18.522;2023-06-26T05:38:09;22.00;99.90
22321;DHT22;11328;53.928;18.522;2023-06-26T05:40:38;22.20;99.90
22321;DHT22;11328;53.928;18.522;2023-06-26T05:43:07;22.40;99.90
22321;DHT22;11328;53.928;18.522;2023-06-26T05:45:35;22.60;99.90
22321;DHT22;11328;53.928;18.522;2023-06-26T05:48:02;22.80;99.90
22321;DHT22;11328;53.928;18.522;2023-06-26T05:50:30;23.00;99.90
22321;DHT22;11328;53.928;18.522;2023-06-26T05:52:58;23.20;99.90
22321;DHT22;11328;53.928;18.522;2023-06-26T05:55:25;23.40;99.90
22321;DHT22;11328;53.928;18.522;2023-06-26T05:57:53;23.60;99.90
22321;DHT22;11328;53.928;18.522;2023-06-26T06:00:25;23.70;99.90
22321;DHT22;11328;53.928;18.522;2023-06-26T06:02:53;23.90;99.90
22321;DHT22;11328;53.928;18.522;2023-06-26T06:05:22;24.10;99.90
22321;DHT22;11328;53.928;18.522;2023-06-26T06:07:50;24.20;99.90
22321;DHT22;11328;53.928;18.522;2023-06-26T06:10:17;24.40;99.90
22321;DHT22;11328;53.928;18.522;2023-06-26T06:12:45;24.60;99.90
22321;DHT22;11328;53.928;18.522;2023-06-26T06:15:12;24.70;99.90
22321;DHT22;11328;53.928;18.522;2023-06-26T06:17:40;24.90;99.90
22321;DHT22;11328;53.928;18.522;2023-06-26T06:20:08;25.00;99.90
22321;DHT22;11328;53.928;18.522;2023-06-26T06:22:35;25.20;99.90
22321;DHT22;11328;53.928;18.522;2023-06-26T06:25:03;25.30;99.90
22321;DHT22;11328;53.928;18.522;2023-06-26T06:27:30;25.60;99.90
22321;DHT22;11328;53.928;18.522;2023-06-26T06:29:58;25.70;99.90
22321;DHT22;11328;53.928;18.522;2023-06-26T06:32:25;25.90;99.90
22321;DHT22;11328;53.928;18.522;2023-06-26T06:34:52;26.10;99.90
22321;DHT22;11328;53.928;18.522;2023-06-26T06:37:19;26.20;99.90
22321;DHT22;11328;53.928;18.522;2023-06-26T06:39:46;26.40;99.90
22321;DHT22;11328;53.928;18.522;2023-06-26T06:42:14;26.50;99.90
22321;DHT22;11328;53.928;18.522;2023-06-26T06:44:41;26.50;99.90
22321;DHT22;11328;53.928;18.522;2023-06-26T06:47:08;26.50;99.90
22321;DHT22;11328;53.928;18.522;2023-06-26T06:49:36;26.70;99.90
22321;DHT22;11328;53.928;18.522;2023-06-26T06:52:03;26.80;99.90
22321;DHT22;11328;53.928;18.522;2023-06-26T06:54:31;26.90;99.90
22321;DHT22;11328;53.928;18.522;2023-06-26T06:56:58;27.00;99.90
22321;DHT22;11328;53.928;18.522;2023-06-26T06:59:25;27.10;99.90
22321;DHT22;11328;53.928;18.522;2023-06-26T07:01:53;27.20;99.90
22321;DHT22;11328;53.928;18.522;2023-06-26T07:04:20;27.40;99.90
22321;DHT22;11328;53.928;18.522;2023-06-26T07:06:48;27.50;99.90
22321;DHT22;11328;53.928;18.522;2023-06-26T07:09:15;27.70;99.90
22321;DHT22;11328;53.928;18.522;2023-06-26T07:11:42;27.70;99.90
22321;DHT22;11328;53.928;18.522;2023-06-26T07:14:09;27.80;99.90
22321;DHT22;11328;53.928;18.522;2023-06-26T07:16:36;27.90;99.90
22321;DHT22;11328;53.928;18.522;2023-06-26T07:19:04;27.80;99.90
22321;DHT22;11328;53.928;18.522;2023-06-26T07:21:33;28.00;99.90
22321;DHT22;11328;53.928;18.522;2023-06-26T07:24:00;28.10;99.90
22321;DHT22;11328;53.928;18.522;2023-06-26T07:26:28;28.20;99.90
22321;DHT22;11328;53.928;18.522;2023-06-26T07:29:10;28.30;99.90
22321;DHT22;11328;53.928;18.522;2023-06-26T07:31:37;28.50;99.90
22321;DHT22;11328;53.928;18.522;2023-06-26T07:34:05;28.70;99.30
22321;DHT22;11328;53.928;18.522;2023-06-26T07:36:32;28.60;97.40
22321;DHT22;11328;53.928;18.522;2023-06-26T07:38:59;28.50;97.20
22321;DHT22;11328;53.928;18.522;2023-06-26T07:41:27;28.50;97.20
22321;DHT22;11328;53.928;18.522;2023-06-26T07:43:56;28.50;97.00
22321;DHT22;11328;53.928;18.522;2023-06-26T07:46:24;28.70;97.20
22321;DHT22;11328;53.928;18.522;2023-06-26T07:48:51;28.90;96.90
22321;DHT22;11328;53.928;18.522;2023-06-26T07:51:19;29.00;96.00
22321;DHT22;11328;53.928;18.522;2023-06-26T07:53:47;29.10;95.10
22321;DHT22;11328;53.928;18.522;2023-06-26T07:56:14;29.00;94.50
22321;DHT22;11328;53.928;18.522;2023-06-26T07:58:41;29.10;94.70
22321;DHT22;11328;53.928;18.522;2023-06-26T08:01:09;29.20;94.60
22321;DHT22;11328;53.928;18.522;2023-06-26T08:03:36;29.10;93.60
22321;DHT22;11328;53.928;18.522;2023-06-26T08:06:03;29.30;93.80
22321;DHT22;11328;53.928;18.522;2023-06-26T08:08:31;29.30;92.00
22321;DHT22;11328;53.928;18.522;2023-06-26T08:10:58;29.40;93.00
22321;DHT22;11328;53.928;18.522;2023-06-26T08:13:25;29.70;93.30
22321;DHT22;11328;53.928;18.522;2023-06-26T08:15:53;29.60;92.20
22321;DHT22;11328;53.928;18.522;2023-06-26T08:18:20;29.70;92.30
22321;DHT22;11328;53.928;18.522;2023-06-26T08:20:47;29.90;92.40
22321;DHT22;11328;53.928;18.522;2023-06-26T08:23:14;30.20;91.80
22321;DHT22;11328;53.928;18.522;2023-06-26T08:25:41;30.10;90.60
22321;DHT22;11328;53.928;18.522;2023-06-26T08:28:08;30.00;90.00
22321;DHT22;11328;53.928;18.522;2023-06-26T08:30:35;30.00;90.50
22321;DHT22;11328;53.928;18.522;2023-06-26T08:33:03;30.10;90.90
22321;DHT22;11328;53.928;18.522;2023-06-26T08:35:30;30.40;91.50
22321;DHT22;11328;53.928;18.522;2023-06-26T08:37:57;30.60;90.90
22321;DHT22;11328;53.928;18.522;2023-06-26T08:40:25;30.70;89.00
22321;DHT22;11328;53.928;18.522;2023-06-26T08:42:53;30.80;87.20
22321;DHT22;11328;53.928;18.522;2023-06-26T08:45:21;30.60;88.00
22321;DHT22;11328;53.928;18.522;2023-06-26T08:47:51;30.80;86.40
22321;DHT22;11328;53.928;18.522;2023-06-26T08:50:23;30.70;85.20
22321;DHT22;11328;53.928;18.522;2023-06-26T08:53:09;30.80;86.90
22321;DHT22;11328;53.928;18.522;2023-06-26T08:55:41;30.90;83.80
22321;DHT22;11328;53.928;18.522;2023-06-26T08:58:09;30.70;82.80
22321;DHT22;11328;53.928;18.522;2023-06-26T09:00:39;30.70;84.30
22321;DHT22;11328;53.928;18.522;2023-06-26T09:03:07;30.90;85.20
22321;DHT22;11328;53.928;18.522;2023-06-26T09:05:36;31.10;83.90
22321;DHT22;11328;53.928;18.522;2023-06-26T09:08:03;31.20;84.40
22321;DHT22;11328;53.928;18.522;2023-06-26T09:10:31;31.40;83.80
22321;DHT22;11328;53.928;18.522;2023-06-26T09:12:58;31.50;83.10
22321;DHT22;11328;53.928;18.522;2023-06-26T09:15:36;31.60;84.80
22321;DHT22;11328;53.928;18.522;2023-06-26T09:18:05;31.60;83.80
22321;DHT22;11328;53.928;18.522;2023-06-26T09:20:32;31.60;82.00
22321;DHT22;11328;53.928;18.522;2023-06-26T09:23:00;31.80;83.20
22321;DHT22;11328;53.928;18.522;2023-06-26T09:25:29;32.00;81.40
22321;DHT22;11328;53.928;18.522;2023-06-26T09:27:56;32.10;81.20
22321;DHT22;11328;53.928;18.522;2023-06-26T09:30:25;32.10;80.50
22321;DHT22;11328;53.928;18.522;2023-06-26T09:32:52;32.00;81.50
22321;DHT22;11328;53.928;18.522;2023-06-26T09:35:21;32.00;81.10
22321;DHT22;11328;53.928;18.522;2023-06-26T09:37:48;32.00;80.80
22321;DHT22;11328;53.928;18.522;2023-06-26T09:40:16;31.90;79.70
22321;DHT22;11328;53.928;18.522;2023-06-26T09:42:44;31.90;79.60
22321;DHT22;11328;53.928;18.522;2023-06-26T09:45:18;31.70;78.00
22321;DHT22;11328;53.928;18.522;2023-06-26T09:47:46;31.50;78.40
22321;DHT22;11328;53.928;18.522;2023-06-26T09:50:23;31.70;79.10
22321;DHT22;11328;53.928;18.522;2023-06-26T09:52:53;31.90;77.50
22321;DHT22;11328;53.928;18.522;2023-06-26T09:55:20;32.10;79.40
22321;DHT22;11328;53.928;18.522;2023-06-26T09:57:52;32.10;79.10
22321;DHT22;11328;53.928;18.522;2023-06-26T10:00:23;32.30;76.30
22321;DHT22;11328;53.928;18.522;2023-06-26T10:02:51;32.40;74.50
22321;DHT22;11328;53.928;18.522;2023-06-26T10:05:19;32.40;75.00
22321;DHT22;11328;53.928;18.522;2023-06-26T10:07:47;32.40;75.40
22321;DHT22;11328;53.928;18.522;2023-06-26T10:10:16;32.30;76.30
22321;DHT22;11328;53.928;18.522;2023-06-26T10:12:48;32.20;75.10
22321;DHT22;11328;53.928;18.522;2023-06-26T10:15:17;32.30;77.20
22321;DHT22;11328;53.928;18.522;2023-06-26T10:17:48;32.30;76.90
22321;DHT22;11328;53.928;18.522;2023-06-26T10:20:16;32.20;74.60
22321;DHT22;11328;53.928;18.522;2023-06-26T10:22:48;32.30;74.30
22321;DHT22;11328;53.928;18.522;2023-06-26T10:25:19;32.30;73.50
22321;DHT22;11328;53.928;18.522;2023-06-26T10:27:52;32.50;75.90
22321;DHT22;11328;53.928;18.522;2023-06-26T10:30:26;32.40;74.70
22321;DHT22;11328;53.928;18.522;2023-06-26T10:32:55;32.50;75.10
22321;DHT22;11328;53.928;18.522;2023-06-26T10:35:24;32.40;75.60
22321;DHT22;11328;53.928;18.522;2023-06-26T10:37:52;32.60;77.80
22321;DHT22;11328;53.928;18.522;2023-06-26T10:40:41;32.60;76.30
22321;DHT22;11328;53.928;18.522;2023-06-26T10:43:18;32.60;76.30
22321;DHT22;11328;53.928;18.522;2023-06-26T10:45:49;32.60;77.00
22321;DHT22;11328;53.928;18.522;2023-06-26T10:48:28;32.50;77.10
22321;DHT22;11328;53.928;18.522;2023-06-26T10:50:56;32.40;77.90
22321;DHT22;11328;53.928;18.522;2023-06-26T10:53:24;32.60;76.80
22321;DHT22;11328;53.928;18.522;2023-06-26T10:56:00;32.50;75.90
22321;DHT22;11328;53.928;18.522;2023-06-26T11:03:45;32.70;76.10
22321;DHT22;11328;53.928;18.522;2023-06-26T11:06:20;32.80;76.50
22321;DHT22;11328;53.928;18.522;2023-06-26T11:08:54;33.00;78.40
22321;DHT22;11328;53.928;18.522;2023-06-26T11:14:20;33.30;74.30
22321;DHT22;11328;53.928;18.522;2023-06-26T11:16:49;33.40;76.40
22321;DHT22;11328;53.928;18.522;2023-06-26T11:19:20;33.30;74.50
22321;DHT22;11328;53.928;18.522;2023-06-26T11:21:48;33.20;74.90
22321;DHT22;11328;53.928;18.522;2023-06-26T11:24:16;33.00;74.90
22321;DHT22;11328;53.928;18.522;2023-06-26T11:26:44;32.80;73.30
22321;DHT22;11328;53.928;18.522;2023-06-26T11:29:13;32.80;74.70
22321;DHT22;11328;53.928;18.522;2023-06-26T11:31:41;32.90;73.70
22321;DHT22;11328;53.928;18.522;2023-06-26T11:34:13;32.80;74.10
22321;DHT22;11328;53.928;18.522;2023-06-26T11:36:42;32.70;74.50
22321;DHT22;11328;53.928;18.522;2023-06-26T11:39:13;32.70;74.60
22321;DHT22;11328;53.928;18.522;2023-06-26T11:41:41;32.80;72.80
22321;DHT22;11328;53.928;18.522;2023-06-26T11:44:09;33.00;72.80
22321;DHT22;11328;53.928;18.522;2023-06-26T11:46:37;33.20;73.80
22321;DHT22;11328;53.928;18.522;2023-06-26T11:49:07;33.20;73.30
22321;DHT22;11328;53.928;18.522;2023-06-26T11:51:35;33.40;71.60
22321;DHT22;11328;53.928;18.522;2023-06-26T11:54:04;33.60;70.20
22321;DHT22;11328;53.928;18.522;2023-06-26T11:56:31;33.50;69.80
22321;DHT22;11328;53.928;18.522;2023-06-26T11:59:07;33.30;69.80
22321;DHT22;11328;53.928;18.522;2023-06-26T12:01:42;33.50;69.90
22321;DHT22;11328;53.928;18.522;2023-06-26T12:04:17;33.30;67.30
22321;DHT22;11328;53.928;18.522;2023-06-26T12:06:49;33.20;67.60
22321;DHT22;11328;53.928;18.522;2023-06-26T12:09:19;33.20;69.80
22321;DHT22;11328;53.928;18.522;2023-06-26T12:11:52;33.40;69.20
22321;DHT22;11328;53.928;18.522;2023-06-26T12:14:22;33.30;66.50
22321;DHT22;11328;53.928;18.522;2023-06-26T12:16:52;33.50;66.30
22321;DHT22;11328;53.928;18.522;2023-06-26T12:19:26;33.60;67.40
22321;DHT22;11328;53.928;18.522;2023-06-26T12:21:54;33.80;68.30
22321;DHT22;11328;53.928;18.522;2023-06-26T12:24:23;34.00;68.30
22321;DHT22;11328;53.928;18.522;2023-06-26T12:26:55;33.90;68.40
22321;DHT22;11328;53.928;18.522;2023-06-26T12:29:33;33.90;67.30
22321;DHT22;11328;53.928;18.522;2023-06-26T12:32:00;33.80;66.00
22321;DHT22;11328;53.928;18.522;2023-06-26T12:37:09;33.40;66.10
22321;DHT22;11328;53.928;18.522;2023-06-26T12:39:48;33.20;68.60
22321;DHT22;11328;53.928;18.522;2023-06-26T12:42:25;33.20;65.90
22321;DHT22;11328;53.928;18.522;2023-06-26T12:44:54;33.20;67.00
22321;DHT22;11328;53.928;18.522;2023-06-26T12:47:28;33.30;68.90
22321;DHT22;11328;53.928;18.522;2023-06-26T12:49:58;33.20;67.40
22321;DHT22;11328;53.928;18.522;2023-06-26T12:52:32;33.00;68.50
22321;DHT22;11328;53.928;18.522;2023-06-26T12:54:59;32.70;69.20
22321;DHT22;11328;53.928;18.522;2023-06-26T12:57:26;32.50;68.00
22321;DHT22;11328;53.928;18.522;2023-06-26T12:59:54;32.20;68.60
22321;DHT22;11328;53.928;18.522;2023-06-26T13:02:21;32.20;67.70
22321;DHT22;11328;53.928;18.522;2023-06-26T13:04:49;32.10;67.80
22321;DHT22;11328;53.928;18.522;2023-06-26T13:07:17;31.90;66.80
22321;DHT22;11328;53.928;18.522;2023-06-26T13:09:45;32.10;66.80
22321;DHT22;11328;53.928;18.522;2023-06-26T13:12:14;32.00;66.30
22321;DHT22;11328;53.928;18.522;2023-06-26T13:14:41;31.90;66.60
22321;DHT22;11328;53.928;18.522;2023-06-26T13:17:10;32.10;65.40
22321;DHT22;11328;53.928;18.522;2023-06-26T13:19:38;32.20;66.50
22321;DHT22;11328;53.928;18.522;2023-06-26T13:22:06;32.40;67.00
22321;DHT22;11328;53.928;18.522;2023-06-26T13:24:33;32.50;66.50
22321;DHT22;11328;53.928;18.522;2023-06-26T13:27:00;32.50;67.40
22321;DHT22;11328;53.928;18.522;2023-06-26T13:29:28;32.40;66.50
22321;DHT22;11328;53.928;18.522;2023-06-26T13:31:56;32.30;66.70
22321;DHT22;11328;53.928;18.522;2023-06-26T13:34:24;32.30;67.90
22321;DHT22;11328;53.928;18.522;2023-06-26T13:36:56;32.20;66.00
22321;DHT22;11328;53.928;18.522;2023-06-26T13:39:27;32.20;69.10
22321;DHT22;11328;53.928;18.522;2023-06-26T13:41:54;32.20;67.20
22321;DHT22;11328;53.928;18.522;2023-06-26T13:44:21;32.30;66.60
22321;DHT22;11328;53.928;18.522;2023-06-26T13:47:04;32.30;66.90
22321;DHT22;11328;53.928;18.522;2023-06-26T13:49:32;32.20;65.80
22321;DHT22;11328;53.928;18.522;2023-06-26T13:51:59;32.20;65.50
22321;DHT22;11328;53.928;18.522;2023-06-26T13:54:27;32.20;65.20
22321;DHT22;11328;53.928;18.522;2023-06-26T13:56:54;32.10;65.40
22321;DHT22;11328;53.928;18.522;2023-06-26T13:59:24;31.90;66.60
22321;DHT22;11328;53.928;18.522;2023-06-26T14:01:52;31.80;66.30
22321;DHT22;11328;53.928;18.522;2023-06-26T14:04:20;31.80;66.30
22321;DHT22;11328;53.928;18.522;2023-06-26T14:06:48;31.70;65.90
22321;DHT22;11328;53.928;18.522;2023-06-26T14:09:15;31.60;64.40
22321;DHT22;11328;53.928;18.522;2023-06-26T14:11:43;31.60;65.90
22321;DHT22;11328;53.928;18.522;2023-06-26T14:14:11;31.70;66.10
22321;DHT22;11328;53.928;18.522;2023-06-26T14:16:38;31.60;66.90
22321;DHT22;11328;53.928;18.522;2023-06-26T14:19:07;31.40;65.20
22321;DHT22;11328;53.928;18.522;2023-06-26T14:21:43;31.30;67.10
22321;DHT22;11328;53.928;18.522;2023-06-26T14:24:10;31.40;67.50
22321;DHT22;11328;53.928;18.522;2023-06-26T14:26:38;31.40;66.60
22321;DHT22;11328;53.928;18.522;2023-06-26T14:29:06;31.40;66.40
22321;DHT22;11328;53.928;18.522;2023-06-26T14:31:33;31.50;66.00
22321;DHT22;11328;53.928;18.522;2023-06-26T14:34:01;31.50;66.00
22321;DHT22;11328;53.928;18.522;2023-06-26T14:36:30;31.40;65.80
22321;DHT22;11328;53.928;18.522;2023-06-26T14:39:00;31.50;66.30
22321;DHT22;11328;53.928;18.522;2023-06-26T14:41:28;31.50;66.30
22321;DHT22;11328;53.928;18.522;2023-06-26T14:43:57;31.60;65.70
22321;DHT22;11328;53.928;18.522;2023-06-26T14:46:24;31.50;65.90
22321;DHT22;11328;53.928;18.522;2023-06-26T14:48:52;31.60;66.40
22321;DHT22;11328;53.928;18.522;2023-06-26T14:51:22;31.70;65.40
22321;DHT22;11328;53.928;18.522;2023-06-26T14:53:49;31.60;66.20
22321;DHT22;11328;53.928;18.522;2023-06-26T14:56:18;31.40;65.40
22321;DHT22;11328;53.928;18.522;2023-06-26T14:58:45;31.20;66.50
22321;DHT22;11328;53.928;18.522;2023-06-26T15:01:16;31.10;66.10
22321;DHT22;11328;53.928;18.522;2023-06-26T15:03:47;31.10;67.20
22321;DHT22;11328;53.928;18.522;2023-06-26T15:06:14;31.10;67.10
22321;DHT22;11328;53.928;18.522;2023-06-26T15:08:42;31.10;67.10
22321;DHT22;11328;53.928;18.522;2023-06-26T15:11:09;31.10;67.30
22321;DHT22;11328;53.928;18.522;2023-06-26T15:13:37;31.10;67.90
22321;DHT22;11328;53.928;18.522;2023-06-26T15:16:04;31.10;68.90
22321;DHT22;11328;53.928;18.522;2023-06-26T15:18:31;31.10;68.00
22321;DHT22;11328;53.928;18.522;2023-06-26T15:20:59;31.10;66.10
22321;DHT22;11328;53.928;18.522;2023-06-26T15:23:26;31.10;67.40
22321;DHT22;11328;53.928;18.522;2023-06-26T15:25:53;31.20;67.60
22321;DHT22;11328;53.928;18.522;2023-06-26T15:28:21;31.10;66.90
22321;DHT22;11328;53.928;18.522;2023-06-26T15:30:48;31.10;67.70
22321;DHT22;11328;53.928;18.522;2023-06-26T15:33:16;31.10;68.20
22321;DHT22;11328;53.928;18.522;2023-06-26T15:35:43;31.20;67.80
22321;DHT22;11328;53.928;18.522;2023-06-26T15:38:11;31.20;67.40
22321;DHT22;11328;53.928;18.522;2023-06-26T15:40:39;31.10;68.60
22321;DHT22;11328;53.928;18.522;2023-06-26T15:43:07;31.10;68.20
22321;DHT22;11328;53.928;18.522;2023-06-26T15:45:34;31.10;69.10